Time;durP1;ratioP1;P1;durP2;ratioP2;P2;SDS_P1;SDS_P2;PMS_P1;PMS_P2;Temp;Humidity;BMP_temperature;BMP_pressure;BME280_temperature;BME280_humidity;BME280_pressure;Samples;Min_cycle;Max_cycle;Signal;HPM_P1;HPM_P2
2023/12/30 00:01:59;;;;;;;12.10;1.77;;;6.90;99.90;;;;;;5057714;28;20052;-56
2023/12/30 00:04:24;;;;;;;12.32;1.77;;;6.90;99.90;;;;;;5058988;28;20121;-51
2023/12/30 00:06:50;;;;;;;10.45;2.08;;;6.90;99.90;;;;;;5059016;28;20051;-52
2023/12/30 00:09:16;;;;;;;9.70;2.00;;;6.90;99.90;;;;;;5059209;28;20040;-49
2023/12/30 00:11:42;;;;;;;14.25;2.25;;;7.00;99.90;;;;;;5058584;28;20036;-48
2023/12/30 00:14:07;;;;;;;10.10;1.90;;;6.90;99.90;;;;;;5058082;28;20044;-50
2023/12/30 00:16:33;;;;;;;8.48;1.92;;;7.00;99.90;;;;;;5060065;28;20380;-52
2023/12/30 00:18:59;;;;;;;18.83;2.30;;;7.00;99.90;;;;;;5036281;28;20071;-50
2023/12/30 00:21:24;;;;;;;15.55;2.35;;;7.00;99.90;;;;;;5057560;28;20098;-51
2023/12/30 00:23:50;;;;;;;9.27;1.83;;;7.00;99.90;;;;;;5056809;28;20044;-52
2023/12/30 00:26:23;;;;;;;11.32;2.20;;;7.00;99.90;;;;;;5061241;28;20040;-53
2023/12/30 00:28:50;;;;;;;8.73;1.77;;;7.00;99.90;;;;;;5056310;28;20403;-49
2023/12/30 00:31:26;;;;;;;11.20;1.80;;;7.00;99.90;;;;;;5062017;28;20044;-51
2023/12/30 00:33:56;;;;;;;7.78;1.65;;;7.00;99.90;;;;;;5062816;28;20086;-51
2023/12/30 00:36:22;;;;;;;12.10;1.60;;;6.90;99.90;;;;;;5062518;28;20042;-49
2023/12/30 00:38:48;;;;;;;8.02;1.73;;;6.90;99.90;;;;;;5062912;28;20048;-51
2023/12/30 00:41:14;;;;;;;15.50;2.08;;;6.90;99.90;;;;;;5059788;28;20299;-51
2023/12/30 00:43:43;;;;;;;13.05;2.28;;;7.00;99.90;;;;;;5064477;28;20482;-50
2023/12/30 00:46:09;;;;;;;12.35;2.03;;;7.00;99.90;;;;;;5061112;28;20474;-49
2023/12/30 00:48:35;;;;;;;10.65;1.52;;;7.00;99.90;;;;;;5058605;28;20410;-51
2023/12/30 00:51:02;;;;;;;11.30;2.05;;;7.00;99.90;;;;;;5063955;28;20587;-51
2023/12/30 00:53:31;;;;;;;8.20;2.08;;;7.00;99.90;;;;;;5060462;28;20118;-50
2023/12/30 00:55:57;;;;;;;;;;;7.00;99.90;;;;;;5060168;28;20410;-52
2023/12/30 00:58:23;;;;;;;11.57;1.98;;;7.00;99.90;;;;;;5062815;28;20008;-53
2023/12/30 01:00:50;;;;;;;11.80;2.30;;;7.00;99.90;;;;;;5045289;28;20113;-50
2023/12/30 01:03:16;;;;;;;7.47;1.25;;;7.00;99.90;;;;;;5045301;28;20044;-49
2023/12/30 01:05:43;;;;;;;13.32;1.77;;;7.00;99.90;;;;;;5059429;28;20040;-48
2023/12/30 01:08:09;;;;;;;9.63;1.60;;;7.00;99.90;;;;;;5065246;28;20147;-49
2023/12/30 01:10:34;;;;;;;10.32;1.58;;;7.00;99.90;;;;;;5060126;28;20093;-53
2023/12/30 01:13:00;;;;;;;10.10;1.67;;;6.90;99.90;;;;;;5061353;28;20555;-48
2023/12/30 01:15:26;;;;;;;8.38;1.95;;;6.90;99.90;;;;;;5063360;28;20044;-49
2023/12/30 01:17:52;;;;;;;9.32;1.50;;;6.90;99.90;;;;;;5063069;28;20036;-49
2023/12/30 01:20:18;;;;;;;12.10;2.00;;;6.90;99.90;;;;;;5055153;28;20036;-53
2023/12/30 01:22:43;;;;;;;10.32;1.60;;;6.90;99.90;;;;;;5058684;28;20032;-52
2023/12/30 01:25:09;;;;;;;7.65;2.10;;;7.00;99.90;;;;;;5062773;28;20485;-52
2023/12/30 01:27:35;;;;;;;8.43;2.28;;;7.00;99.90;;;;;;5062481;28;20052;-51
2023/12/30 01:30:00;;;;;;;11.85;2.05;;;7.00;99.90;;;;;;5045168;28;20862;-49
2023/12/30 01:32:26;;;;;;;9.95;2.45;;;7.10;99.90;;;;;;5063725;28;20048;-49
2023/12/30 01:34:52;;;;;;;9.90;1.50;;;7.00;99.90;;;;;;5061785;28;20593;-49
2023/12/30 01:37:18;;;;;;;14.02;1.85;;;7.10;99.90;;;;;;5056620;28;20442;-49
2023/12/30 01:39:44;;;;;;;13.07;1.83;;;7.00;99.90;;;;;;5065427;28;20082;-49
2023/12/30 01:42:11;;;;;;;13.90;2.53;;;6.90;99.90;;;;;;5044529;28;20439;-52
2023/12/30 01:44:37;;;;;;;11.52;2.05;;;6.90;99.90;;;;;;5056834;28;20044;-51
2023/12/30 01:47:04;;;;;;;11.25;2.20;;;6.80;99.90;;;;;;5061123;28;20040;-48
2023/12/30 01:49:30;;;;;;;10.20;2.03;;;6.80;99.90;;;;;;5062943;28;20174;-49
2023/12/30 01:51:57;;;;;;;10.20;1.70;;;6.80;99.90;;;;;;5058769;28;20457;-49
2023/12/30 01:54:24;;;;;;;8.95;1.60;;;6.80;99.90;;;;;;5057644;28;20136;-48
2023/12/30 01:56:50;;;;;;;13.52;1.60;;;6.80;99.90;;;;;;5057800;28;20044;-49
2023/12/30 01:59:18;;;;;;;13.10;1.83;;;6.90;99.90;;;;;;5056485;28;20041;-49
2023/12/30 02:01:47;;;;;;;8.98;1.55;;;6.90;99.90;;;;;;5043778;28;20036;-49
2023/12/30 02:04:13;;;;;;;7.25;1.30;;;6.90;99.90;;;;;;5059987;28;20041;-49
2023/12/30 02:06:39;;;;;;;11.60;1.73;;;6.90;99.90;;;;;;5056217;28;20411;-52
2023/12/30 02:09:06;;;;;;;11.60;1.92;;;6.90;99.90;;;;;;5054506;28;20456;-51
2023/12/30 02:11:32;;;;;;;15.18;2.03;;;6.80;99.90;;;;;;5061982;28;20224;-51
2023/12/30 02:13:58;;;;;;;14.77;1.67;;;6.90;99.90;;;;;;5060406;28;20051;-54
2023/12/30 02:16:23;;;;;;;15.25;1.90;;;6.90;99.90;;;;;;5055854;28;20032;-49
2023/12/30 02:18:49;;;;;;;12.25;2.00;;;6.90;99.90;;;;;;5062232;28;20258;-48
2023/12/30 02:21:15;;;;;;;14.57;2.17;;;7.00;99.90;;;;;;5061653;28;20052;-52
2023/12/30 02:23:41;;;;;;;12.95;1.75;;;7.00;99.90;;;;;;5044200;28;20040;-52
2023/12/30 02:26:07;;;;;;;10.57;2.03;;;7.10;99.90;;;;;;5060588;28;20040;-51
2023/12/30 02:28:34;;;;;;;12.00;2.22;;;7.10;99.90;;;;;;5055368;28;20691;-51
2023/12/30 02:31:00;;;;;;;13.23;2.25;;;7.20;99.90;;;;;;5057456;28;20048;-52
2023/12/30 02:33:25;;;;;;;8.02;1.35;;;7.10;99.90;;;;;;5057379;28;20056;-50
2023/12/30 02:35:51;;;;;;;10.88;1.35;;;7.20;99.90;;;;;;5060064;28;20161;-52
2023/12/30 02:38:17;;;;;;;13.32;2.17;;;7.20;99.90;;;;;;5061826;28;20036;-49
2023/12/30 02:40:44;;;;;;;9.95;1.98;;;7.30;99.90;;;;;;5056626;28;20103;-50
2023/12/30 02:43:10;;;;;;;16.25;2.53;;;7.30;99.90;;;;;;5057995;28;20040;-49
2023/12/30 02:45:36;;;;;;;17.83;2.72;;;7.30;99.90;;;;;;5058737;28;20525;-49
2023/12/30 02:48:02;;;;;;;9.95;1.95;;;7.40;99.90;;;;;;5060346;28;20588;-48
2023/12/30 02:50:28;;;;;;;12.48;2.45;;;7.40;99.90;;;;;;5041330;28;20029;-48
2023/12/30 02:52:54;;;;;;;15.75;2.78;;;7.40;99.90;;;;;;5054025;28;20033;-49
2023/12/30 02:55:19;;;;;;;19.80;2.40;;;7.50;99.90;;;;;;5057498;28;20391;-48
2023/12/30 02:57:45;;;;;;;13.05;1.85;;;7.50;99.90;;;;;;5060375;28;20491;-48
2023/12/30 03:00:11;;;;;;;14.00;2.13;;;7.50;99.90;;;;;;5060692;28;20071;-50
2023/12/30 03:02:37;;;;;;;16.30;1.92;;;7.50;99.90;;;;;;5058132;28;20594;-52
2023/12/30 03:05:03;;;;;;;15.30;2.10;;;7.50;99.90;;;;;;5051071;28;20212;-49
2023/12/30 03:07:29;;;;;;;16.50;2.33;;;7.60;99.90;;;;;;5046952;28;20770;-50
2023/12/30 03:09:55;;;;;;;5.90;1.73;;;7.60;99.90;;;;;;5060892;28;20414;-49
2023/12/30 03:12:20;;;;;;;9.13;1.75;;;7.60;99.90;;;;;;5059207;28;20040;-48
2023/12/30 03:14:46;;;;;;;16.10;2.22;;;7.60;99.90;;;;;;5059079;28;20040;-53
2023/12/30 03:17:12;;;;;;;7.40;2.55;;;7.60;99.90;;;;;;5056282;28;20033;-51
2023/12/30 03:19:39;;;;;;;8.73;2.33;;;7.70;99.90;;;;;;5059895;28;20048;-48
2023/12/30 03:22:05;;;;;;;9.88;1.50;;;7.70;99.90;;;;;;5059162;28;20048;-49
2023/12/30 03:24:31;;;;;;;11.60;2.38;;;7.70;99.90;;;;;;5059028;28;20518;-49
2023/12/30 03:26:57;;;;;;;7.85;1.85;;;7.70;99.90;;;;;;5040795;28;20077;-49
2023/12/30 03:29:22;;;;;;;13.85;2.05;;;7.70;99.90;;;;;;5058432;28;20070;-50
2023/12/30 03:31:48;;;;;;;8.80;1.98;;;7.70;99.90;;;;;;5061151;28;20082;-52
2023/12/30 03:34:14;;;;;;;12.60;2.53;;;7.70;99.90;;;;;;5058020;28;20464;-49
2023/12/30 03:36:39;;;;;;;15.50;2.30;;;7.80;99.90;;;;;;5060646;28;20036;-49
2023/12/30 03:39:05;;;;;;;9.13;2.25;;;7.80;99.90;;;;;;5059047;28;20727;-50
2023/12/30 03:41:31;;;;;;;15.07;2.30;;;7.70;99.90;;;;;;5058437;28;20083;-48
2023/12/30 03:43:57;;;;;;;10.43;1.90;;;7.70;99.90;;;;;;5061147;28;20043;-48
2023/12/30 03:46:22;;;;;;;14.85;2.55;;;7.70;99.90;;;;;;5057084;28;20506;-49
2023/12/30 03:48:48;;;;;;;13.98;1.88;;;7.70;99.90;;;;;;5059307;28;20522;-49
2023/12/30 03:51:14;;;;;;;9.88;2.33;;;7.60;99.90;;;;;;5060152;28;20498;-48
2023/12/30 03:53:41;;;;;;;17.70;2.17;;;7.60;99.90;;;;;;5056236;28;20132;-49
2023/12/30 03:56:06;;;;;;;15.35;2.42;;;7.60;99.90;;;;;;5060188;28;20075;-51
2023/12/30 03:58:32;;;;;;;12.32;1.98;;;7.60;99.90;;;;;;5056035;28;20160;-50
2023/12/30 04:00:58;;;;;;;8.90;1.73;;;7.60;99.90;;;;;;5059469;28;20577;-50
2023/12/30 04:03:24;;;;;;;16.58;2.10;;;7.60;99.90;;;;;;5060820;28;20155;-50
2023/12/30 04:05:49;;;;;;;22.15;3.20;;;7.60;99.90;;;;;;5064089;28;20032;-49
2023/12/30 04:08:15;;;;;;;12.88;2.35;;;7.60;99.90;;;;;;5065120;28;20123;-49
2023/12/30 04:10:41;;;;;;;13.85;2.53;;;7.60;99.90;;;;;;5063777;28;20052;-49
2023/12/30 04:13:07;;;;;;;16.05;3.00;;;7.60;99.90;;;;;;5064396;28;20094;-52
2023/12/30 04:15:32;;;;;;;16.25;2.50;;;7.50;99.90;;;;;;5059976;28;20411;-50
2023/12/30 04:17:58;;;;;;;10.63;2.67;;;7.40;99.90;;;;;;5062216;28;20063;-51
2023/12/30 04:20:24;;;;;;;9.75;2.05;;;7.40;99.90;;;;;;5063741;28;20028;-49
2023/12/30 04:22:49;;;;;;;11.85;1.85;;;7.30;99.90;;;;;;5062526;28;20052;-51
2023/12/30 04:25:15;;;;;;;12.10;2.20;;;7.30;99.90;;;;;;5062076;28;20424;-52
2023/12/30 04:27:41;;;;;;;9.48;2.15;;;7.30;99.90;;;;;;5063543;28;20032;-51
2023/12/30 04:30:07;;;;;;;10.05;1.90;;;7.30;99.90;;;;;;5063256;28;20036;-49
2023/12/30 04:32:33;;;;;;;12.80;2.42;;;7.30;99.90;;;;;;5063985;28;20059;-48
2023/12/30 04:34:58;;;;;;;10.63;2.08;;;7.40;99.90;;;;;;5056285;28;20036;-49
2023/12/30 04:37:24;;;;;;;11.35;1.95;;;7.40;99.90;;;;;;5055368;28;20595;-49
2023/12/30 04:39:50;;;;;;;8.32;1.58;;;7.50;99.90;;;;;;5058994;28;20068;-50
2023/12/30 04:42:15;;;;;;;12.10;2.30;;;7.50;99.90;;;;;;5029661;28;20122;-50
2023/12/30 04:44:41;;;;;;;10.27;1.95;;;7.60;99.90;;;;;;5055427;28;20113;-48
2023/12/30 04:47:07;;;;;;;9.07;2.03;;;7.60;99.90;;;;;;5060252;28;20151;-50
2023/12/30 04:49:33;;;;;;;17.23;3.28;;;7.60;99.90;;;;;;5063463;28;20044;-48
2023/12/30 04:51:59;;;;;;;16.55;2.40;;;7.60;99.90;;;;;;5063409;28;20086;-48
2023/12/30 04:54:30;;;;;;;13.73;2.35;;;7.60;99.90;;;;;;5062102;28;20683;-50
2023/12/30 04:56:56;;;;;;;15.90;1.90;;;7.60;99.90;;;;;;5062278;28;20045;-49
2023/12/30 04:59:22;;;;;;;15.75;2.45;;;7.50;99.90;;;;;;5057187;28;20461;-49
2023/12/30 05:01:48;;;;;;;13.02;2.28;;;7.50;99.90;;;;;;5058356;28;20051;-47
2023/12/30 05:04:13;;;;;;;15.45;2.60;;;7.60;99.90;;;;;;5060203;28;20047;-50
2023/12/30 05:06:39;;;;;;;15.75;2.30;;;7.60;99.90;;;;;;5063261;28;20043;-50
2023/12/30 05:09:05;;;;;;;16.35;3.08;;;7.50;99.90;;;;;;5060870;28;20044;-47
2023/12/30 05:11:31;;;;;;;12.05;2.00;;;7.50;99.90;;;;;;5052473;28;20518;-50
2023/12/30 05:13:57;;;;;;;16.90;2.55;;;7.50;99.90;;;;;;5060453;28;20037;-51
2023/12/30 05:16:23;;;;;;;13.35;2.47;;;7.50;99.90;;;;;;5061897;28;20032;-50
2023/12/30 05:18:49;;;;;;;13.43;2.22;;;7.50;99.90;;;;;;5060240;28;20648;-48
2023/12/30 05:21:15;;;;;;;15.75;2.08;;;7.50;99.90;;;;;;5042858;28;20090;-49
2023/12/30 05:23:42;;;;;;;16.40;2.83;;;7.50;99.90;;;;;;5042168;28;20062;-49
2023/12/30 05:26:08;;;;;;;13.63;2.38;;;7.40;99.90;;;;;;5056023;28;20102;-49
2023/12/30 05:28:34;;;;;;;14.25;2.08;;;7.40;99.90;;;;;;5046361;28;20045;-50
2023/12/30 05:31:01;;;;;;;15.73;3.88;;;7.40;99.90;;;;;;5062022;28;20079;-51
2023/12/30 05:33:27;;;;;;;15.05;3.20;;;7.40;99.90;;;;;;5042278;28;20571;-49
2023/12/30 05:35:53;;;;;;;17.02;2.15;;;7.30;99.90;;;;;;5045706;28;20040;-49
2023/12/30 05:38:19;;;;;;;12.75;2.10;;;7.40;99.90;;;;;;5061088;28;20033;-48
2023/12/30 05:40:44;;;;;;;11.27;2.47;;;7.30;99.90;;;;;;5064603;28;20388;-50
2023/12/30 05:43:10;;;;;;;16.85;3.17;;;7.30;99.90;;;;;;5062358;28;20147;-52
2023/12/30 05:45:36;;;;;;;9.35;1.73;;;7.40;99.90;;;;;;5043045;28;20045;-49
2023/12/30 05:48:02;;;;;;;10.57;2.40;;;7.30;99.90;;;;;;5062161;28;20045;-51
2023/12/30 05:50:28;;;;;;;13.30;2.42;;;7.40;99.90;;;;;;5056262;28;20126;-52
2023/12/30 05:52:55;;;;;;;15.10;2.55;;;7.40;99.90;;;;;;5061917;28;20105;-50
2023/12/30 05:55:21;;;;;;;18.83;2.38;;;7.40;99.90;;;;;;5061871;28;20045;-51
2023/12/30 05:57:47;;;;;;;10.93;2.15;;;7.40;99.90;;;;;;5056421;28;20040;-50
2023/12/30 06:00:19;;;;;;;13.52;2.67;;;7.50;99.90;;;;;;5060795;28;20500;-50
2023/12/30 06:02:45;;;;;;;15.32;2.42;;;7.40;99.90;;;;;;5039229;28;20044;-50
2023/12/30 06:05:11;;;;;;;14.40;2.55;;;7.40;99.90;;;;;;5062215;28;20071;-49
2023/12/30 06:07:38;;;;;;;11.32;2.25;;;7.40;99.90;;;;;;5061660;28;20476;-52
2023/12/30 06:10:07;;;;;;;9.05;2.20;;;7.40;99.90;;;;;;5059381;28;20037;-49
2023/12/30 06:12:33;;;;;;;;;;;7.40;99.90;;;;;;5062567;28;20051;-47
2023/12/30 06:14:59;;;;;;;15.25;2.40;;;7.40;99.90;;;;;;5064023;28;19928;-49
2023/12/30 06:17:24;;;;;;;11.27;1.88;;;7.40;99.90;;;;;;5060129;28;20115;-48
2023/12/30 06:19:50;;;;;;;12.30;2.33;;;7.40;99.90;;;;;;5059830;28;20079;-51
2023/12/30 06:22:16;;;;;;;14.52;2.50;;;7.40;99.90;;;;;;5043208;28;20044;-47
2023/12/30 06:24:42;;;;;;;11.43;2.03;;;7.40;99.90;;;;;;5054656;28;20132;-52
2023/12/30 06:27:07;;;;;;;13.18;2.47;;;7.50;99.90;;;;;;5060590;28;20043;-49
2023/12/30 06:29:33;;;;;;;13.80;2.08;;;7.50;99.90;;;;;;5061547;28;20145;-50
2023/12/30 06:31:59;;;;;;;9.48;2.08;;;7.50;99.90;;;;;;5057348;28;20676;-51
2023/12/30 06:34:24;;;;;;;15.90;2.72;;;7.50;99.90;;;;;;5055236;28;20041;-50
2023/12/30 06:36:50;;;;;;;19.92;2.65;;;7.50;99.90;;;;;;5060416;28;20033;-50
2023/12/30 06:39:17;;;;;;;11.52;2.78;;;7.50;99.90;;;;;;5059263;28;20123;-48
2023/12/30 06:41:43;;;;;;;18.00;2.65;;;7.50;99.90;;;;;;5062011;28;20032;-53
2023/12/30 06:44:09;;;;;;;12.52;1.83;;;7.50;99.90;;;;;;5061397;28;20041;-49
2023/12/30 06:46:35;;;;;;;10.85;1.80;;;7.50;99.90;;;;;;5057089;28;20158;-48
2023/12/30 06:49:00;;;;;;;17.08;2.50;;;7.50;99.90;;;;;;5058994;28;20079;-47
2023/12/30 06:51:27;;;;;;;16.40;2.17;;;7.60;99.90;;;;;;5061128;28;20554;-47
2023/12/30 06:53:53;;;;;;;15.45;2.50;;;7.50;99.90;;;;;;5055874;28;20036;-51
2023/12/30 06:56:19;;;;;;;10.65;2.13;;;7.40;99.90;;;;;;5043186;28;20036;-48
2023/12/30 06:58:45;;;;;;;12.50;2.22;;;7.40;99.90;;;;;;5060902;28;20041;-49
2023/12/30 07:01:14;;;;;;;20.73;3.58;;;7.40;99.90;;;;;;5060379;28;20082;-49
2023/12/30 07:03:40;;;;;;;19.38;2.83;;;7.30;99.90;;;;;;5042642;28;20063;-49
2023/12/30 07:06:06;;;;;;;18.85;3.10;;;7.30;99.90;;;;;;5061594;28;20118;-51
2023/12/30 07:08:32;;;;;;;12.57;2.15;;;7.30;99.90;;;;;;5054298;28;20047;-48
2023/12/30 07:10:58;;;;;;;17.38;2.55;;;7.30;99.90;;;;;;5059377;28;20044;-48
2023/12/30 07:13:23;;;;;;;14.10;2.50;;;7.30;99.90;;;;;;5058492;28;20044;-49
2023/12/30 07:15:50;;;;;;;14.73;2.50;;;7.20;99.90;;;;;;5059734;28;20036;-48
2023/12/30 07:18:17;;;;;;;13.52;2.50;;;7.30;99.90;;;;;;5057009;28;20041;-49
2023/12/30 07:20:43;;;;;;;21.92;2.85;;;7.20;99.90;;;;;;5042118;28;20640;-48
2023/12/30 07:23:09;;;;;;;14.73;3.72;;;7.20;99.90;;;;;;5061235;28;20033;-51
2023/12/30 07:25:35;;;;;;;16.48;2.70;;;7.20;99.90;;;;;;5058584;28;20075;-50
2023/12/30 07:28:01;;;;;;;12.25;2.53;;;7.30;99.90;;;;;;5057158;28;20037;-49
2023/12/30 07:30:27;;;;;;;14.02;2.42;;;7.20;99.90;;;;;;5057069;28;20422;-48
2023/12/30 07:32:53;;;;;;;14.95;3.03;;;7.30;99.90;;;;;;5060553;28;20036;-52
2023/12/30 07:35:19;;;;;;;14.23;1.88;;;7.30;99.90;;;;;;5042436;28;20127;-52
2023/12/30 07:37:46;;;;;;;10.98;2.47;;;7.20;99.90;;;;;;5059599;28;20033;-50
2023/12/30 07:40:12;;;;;;;20.45;2.65;;;7.30;99.90;;;;;;5059430;28;20067;-49
2023/12/30 07:42:38;;;;;;;13.27;2.00;;;7.30;99.90;;;;;;5040337;28;20529;-49
2023/12/30 07:45:06;;;;;;;19.42;1.90;;;7.40;99.90;;;;;;5039234;28;20036;-51
2023/12/30 07:47:33;;;;;;;15.50;2.55;;;7.30;99.90;;;;;;5055890;28;20094;-51
2023/12/30 07:49:59;;;;;;;10.30;1.98;;;7.30;99.90;;;;;;5054511;28;20040;-51
2023/12/30 07:52:25;;;;;;;18.20;3.13;;;7.30;99.90;;;;;;5057367;28;20059;-51
2023/12/30 07:54:51;;;;;;;11.73;2.58;;;7.30;99.90;;;;;;5054483;28;20494;-50
2023/12/30 07:57:17;;;;;;;13.98;2.47;;;7.30;99.90;;;;;;5057473;28;20040;-49
2023/12/30 07:59:43;;;;;;;14.77;3.17;;;7.30;99.90;;;;;;5057817;28;20369;-49
2023/12/30 08:02:08;;;;;;;16.60;2.50;;;7.30;99.90;;;;;;5061824;28;20048;-49
2023/12/30 08:04:34;;;;;;;21.85;3.67;;;7.30;99.90;;;;;;5056164;28;20094;-48
2023/12/30 08:07:00;;;;;;;9.82;1.77;;;7.30;99.90;;;;;;5057905;28;20083;-50
2023/12/30 08:09:26;;;;;;;15.07;2.67;;;7.30;99.90;;;;;;5059389;28;20071;-48
2023/12/30 08:11:51;;;;;;;18.58;2.90;;;7.30;99.90;;;;;;5059403;28;20490;-47
2023/12/30 08:14:17;;;;;;;18.52;2.78;;;7.30;99.90;;;;;;5058224;28;20049;-48
2023/12/30 08:16:43;;;;;;;10.52;2.30;;;7.20;99.90;;;;;;5056705;28;20040;-51
2023/12/30 08:19:09;;;;;;;13.20;2.05;;;7.20;99.90;;;;;;5054300;28;20066;-50
2023/12/30 08:21:35;;;;;;;15.07;1.95;;;7.20;99.90;;;;;;5050551;28;20119;-52
2023/12/30 08:24:01;;;;;;;11.07;2.30;;;7.30;99.90;;;;;;5054374;28;20195;-51
2023/12/30 08:26:28;;;;;;;14.15;2.75;;;7.40;99.90;;;;;;5056477;28;20481;-51
2023/12/30 08:28:55;;;;;;;13.95;2.67;;;7.30;99.90;;;;;;5056203;28;20045;-51
2023/12/30 08:31:21;;;;;;;16.58;2.33;;;7.30;99.90;;;;;;5059693;28;20123;-50
2023/12/30 08:33:47;;;;;;;10.82;2.30;;;7.30;99.90;;;;;;5058212;28;20082;-49
2023/12/30 08:36:13;;;;;;;11.77;1.80;;;7.30;99.90;;;;;;5053422;28;20078;-50
2023/12/30 08:38:39;;;;;;;15.00;3.33;;;7.40;99.90;;;;;;5040954;28;20032;-52
2023/12/30 08:41:09;;;;;;;11.07;2.08;;;7.30;99.90;;;;;;5054992;28;20033;-50
2023/12/30 08:43:36;;;;;;;9.15;1.80;;;7.20;99.90;;;;;;5056829;28;20041;-50
2023/12/30 08:46:02;;;;;;;14.88;2.53;;;7.30;99.90;;;;;;5060435;28;20033;-51
2023/12/30 08:48:27;;;;;;;10.70;1.85;;;7.20;99.90;;;;;;5057938;28;20068;-51
2023/12/30 08:50:53;;;;;;;13.57;2.38;;;7.20;99.90;;;;;;5060487;28;20367;-52
2023/12/30 08:53:24;;;;;;;8.95;1.55;;;7.20;99.90;;;;;;5059310;28;20040;-53
2023/12/30 08:55:52;;;;;;;9.25;1.88;;;7.20;99.90;;;;;;5043841;28;20138;-50
2023/12/30 08:58:18;;;;;;;9.98;2.88;;;7.20;99.90;;;;;;5060973;28;20036;-51
2023/12/30 09:00:44;;;;;;;10.68;1.90;;;7.30;99.90;;;;;;5061012;28;20039;-52
2023/12/30 09:03:10;;;;;;;13.35;2.00;;;7.30;99.90;;;;;;5063032;28;20443;-50
2023/12/30 09:05:36;;;;;;;11.05;1.90;;;7.30;99.90;;;;;;5061566;28;20040;-51
2023/12/30 09:08:04;;;;;;;19.20;2.55;;;7.30;99.90;;;;;;5058060;28;20119;-50
2023/12/30 09:10:31;;;;;;;11.98;1.92;;;7.30;99.90;;;;;;5062761;28;20044;-50
2023/12/30 09:12:57;;;;;;;6.60;1.70;;;7.30;99.90;;;;;;5064031;28;20071;-51
2023/12/30 09:15:22;;;;;;;13.48;1.73;;;7.30;99.90;;;;;;5043031;28;20044;-49
2023/12/30 09:17:48;;;;;;;8.88;2.10;;;7.40;99.90;;;;;;5064041;28;20033;-51
2023/12/30 09:20:14;;;;;;;9.07;2.40;;;7.40;99.90;;;;;;5061372;28;20032;-49
2023/12/30 09:22:40;;;;;;;13.45;2.05;;;7.40;99.90;;;;;;5062604;28;20075;-49
2023/12/30 09:25:06;;;;;;;12.32;2.75;;;7.40;99.90;;;;;;5060569;28;20044;-51
2023/12/30 09:27:32;;;;;;;14.63;1.90;;;7.40;99.90;;;;;;5063493;28;20083;-51
2023/12/30 09:29:57;;;;;;;12.98;2.10;;;7.50;99.90;;;;;;5063408;28;20319;-52
2023/12/30 09:32:23;;;;;;;7.30;1.88;;;7.50;99.90;;;;;;5063638;28;20037;-49
2023/12/30 09:34:49;;;;;;;14.07;2.33;;;7.50;99.90;;;;;;5053935;28;20049;-53
2023/12/30 09:37:15;;;;;;;16.02;2.15;;;7.50;99.90;;;;;;5059879;28;20462;-52
2023/12/30 09:39:42;;;;;;;13.60;2.00;;;7.50;99.90;;;;;;5045746;28;20064;-52
2023/12/30 09:42:07;;;;;;;15.80;2.67;;;7.50;99.90;;;;;;5063377;28;20124;-52
2023/12/30 09:44:34;;;;;;;15.20;2.20;;;7.50;99.90;;;;;;5062501;28;20044;-49
2023/12/30 09:47:02;;;;;;;20.45;2.45;;;7.60;99.90;;;;;;5055537;28;20040;-52
2023/12/30 09:49:34;;;;;;;9.53;2.37;;;7.60;99.90;;;;;;5059298;28;20045;-54
2023/12/30 09:52:02;;;;;;;17.55;2.47;;;7.70;99.90;;;;;;5064337;28;20044;-50
2023/12/30 09:54:28;;;;;;;9.18;1.73;;;7.80;99.90;;;;;;5055366;28;20075;-51
2023/12/30 09:56:56;;;;;;;11.98;1.83;;;7.80;99.90;;;;;;5060059;28;20043;-51
2023/12/30 09:59:26;;;;;;;10.98;1.88;;;7.90;99.90;;;;;;5057498;28;20041;-52
2023/12/30 10:01:54;;;;;;;21.83;2.55;;;7.90;99.90;;;;;;5057496;28;20036;-47
2023/12/30 10:04:20;;;;;;;14.40;3.10;;;8.00;99.90;;;;;;5059890;28;20045;-50
2023/12/30 10:06:48;;;;;;;13.15;2.35;;;7.70;99.90;;;;;;5062213;28;20872;-53
2023/12/30 10:09:15;;;;;;;16.50;2.43;;;8.10;99.90;;;;;;5061962;28;20454;-51
2023/12/30 10:11:43;;;;;;;11.10;2.00;;;8.10;99.90;;;;;;5061666;28;20040;-49
2023/12/30 10:14:09;;;;;;;16.13;2.75;;;8.20;99.90;;;;;;5061581;28;20640;-51
2023/12/30 10:16:36;;;;;;;18.75;2.58;;;8.20;99.90;;;;;;5062002;28;20147;-49
2023/12/30 10:19:02;;;;;;;18.50;2.40;;;8.20;99.90;;;;;;5062425;28;20090;-51
2023/12/30 10:21:28;;;;;;;12.38;1.80;;;8.20;99.90;;;;;;5062191;28;20351;-50
2023/12/30 10:23:54;;;;;;;11.88;2.60;;;8.30;99.90;;;;;;5063236;28;20086;-52
2023/12/30 10:26:21;;;;;;;10.77;2.33;;;8.30;99.90;;;;;;5058498;28;20462;-49
2023/12/30 10:28:47;;;;;;;10.25;1.92;;;8.30;99.90;;;;;;5050522;28;20037;-51
2023/12/30 10:31:16;;;;;;;12.38;2.20;;;8.30;99.90;;;;;;5061820;28;20036;-52
2023/12/30 10:33:42;;;;;;;;;;;8.20;99.90;;;;;;5058620;28;20048;-50
2023/12/30 10:36:08;;;;;;;11.18;1.73;;;8.30;99.90;;;;;;5062631;28;20367;-52
2023/12/30 10:38:35;;;;;;;14.88;2.03;;;8.20;99.90;;;;;;5057488;28;20045;-49
2023/12/30 10:41:01;;;;;;;11.15;1.88;;;8.30;99.90;;;;;;5060065;28;20040;-49
2023/12/30 10:43:27;;;;;;;7.80;1.98;;;8.30;99.90;;;;;;5061140;28;20044;-51
2023/12/30 10:45:58;;;;;;;10.55;2.13;;;8.30;99.90;;;;;;5059099;28;20037;-48
2023/12/30 10:48:37;;;;;;;11.50;2.13;;;8.30;99.90;;;;;;5060278;28;20055;-48
2023/12/30 10:51:03;;;;;;;17.23;2.65;;;8.40;99.90;;;;;;5061330;28;20390;-52
2023/12/30 10:53:30;;;;;;;21.85;2.30;;;8.40;99.90;;;;;;5061822;28;20735;-49
2023/12/30 10:56:01;;;;;;;10.85;1.80;;;8.40;99.90;;;;;;5061548;28;20071;-52
2023/12/30 10:58:35;;;;;;;12.50;2.28;;;8.50;99.90;;;;;;5060197;28;20056;-48
2023/12/30 11:01:03;;;;;;;9.05;1.63;;;8.50;99.90;;;;;;5057396;28;20143;-51
2023/12/30 11:03:31;;;;;;;13.90;2.20;;;8.60;99.90;;;;;;5060360;28;20040;-48
2023/12/30 11:06:12;;;;;;;15.43;2.08;;;8.60;99.90;;;;;;5058043;28;20040;-49
2023/12/30 11:08:41;;;;;;;12.32;3.15;;;8.70;99.90;;;;;;5057637;28;20051;-52
2023/12/30 11:11:07;;;;;;;10.63;1.98;;;8.70;99.90;;;;;;5059699;28;20056;-51
2023/12/30 11:13:39;;;;;;;12.38;2.40;;;8.70;99.90;;;;;;5059237;28;20036;-50
2023/12/30 11:16:13;;;;;;;21.58;3.10;;;8.70;99.90;;;;;;5055254;28;20084;-48
2023/12/30 11:18:48;;;;;;;9.90;2.00;;;8.80;99.90;;;;;;5059710;28;20033;-48
2023/12/30 11:21:37;;;;;;;10.15;2.10;;;8.90;99.90;;;;;;5052790;28;20033;-48
2023/12/30 11:24:17;;;;;;;7.72;2.10;;;8.90;99.90;;;;;;5060162;28;20044;-54
2023/12/30 11:26:44;;;;;;;12.77;2.47;;;8.90;99.90;;;;;;5060852;28;20047;-53
2023/12/30 11:29:18;;;;;;;7.80;1.98;;;8.90;99.90;;;;;;5060461;28;20040;-53
2023/12/30 11:31:46;;;;;;;10.38;1.70;;;9.00;99.90;;;;;;5059664;28;20048;-52
2023/12/30 11:34:13;;;;;;;9.35;1.67;;;8.90;99.90;;;;;;5055113;28;20123;-53
2023/12/30 11:36:39;;;;;;;8.95;2.00;;;8.90;99.90;;;;;;5059820;28;20103;-49
2023/12/30 11:39:07;;;;;;;10.93;2.17;;;8.80;99.90;;;;;;5058500;28;20036;-50
2023/12/30 11:41:34;;;;;;;10.50;2.30;;;8.70;99.90;;;;;;5056040;28;20097;-50
2023/12/30 11:44:03;;;;;;;11.88;2.25;;;8.80;99.90;;;;;;5041931;28;20040;-51
2023/12/30 11:46:29;;;;;;;7.20;2.03;;;8.90;99.90;;;;;;5060375;28;20083;-51
2023/12/30 11:48:59;;;;;;;11.93;2.40;;;8.90;99.90;;;;;;5058364;28;20041;-50
2023/12/30 11:51:27;;;;;;;7.10;2.25;;;9.00;99.90;;;;;;5059275;28;20041;-50
2023/12/30 11:53:53;;;;;;;13.13;2.15;;;9.10;99.90;;;;;;5057869;28;20454;-51
2023/12/30 11:56:20;;;;;;;11.15;2.45;;;9.20;99.90;;;;;;5058701;28;20032;-51
2023/12/30 11:58:49;;;;;;;11.00;2.50;;;9.30;99.90;;;;;;5061628;28;20494;-53
2023/12/30 12:01:15;;;;;;;14.10;2.55;;;9.20;99.90;;;;;;5040636;28;20037;-52
2023/12/30 12:03:41;;;;;;;12.13;2.13;;;9.20;99.90;;;;;;5060949;28;20037;-49
2023/12/30 12:06:10;;;;;;;10.55;1.80;;;9.20;99.90;;;;;;5059998;28;20407;-50
2023/12/30 12:08:36;;;;;;;14.07;3.00;;;9.20;99.90;;;;;;5047964;28;20040;-53
2023/12/30 12:11:03;;;;;;;19.90;2.88;;;9.10;99.90;;;;;;5058648;28;20044;-51
2023/12/30 12:13:29;;;;;;;8.90;2.33;;;9.00;99.90;;;;;;5058032;28;20036;-50
2023/12/30 12:15:56;;;;;;;13.75;3.22;;;8.90;99.90;;;;;;5058835;28;20146;-52
2023/12/30 12:18:23;;;;;;;12.95;2.00;;;8.80;99.90;;;;;;5057074;28;20068;-50
2023/12/30 12:20:53;;;;;;;9.80;2.03;;;8.80;99.90;;;;;;5046529;28;20029;-52
2023/12/30 12:23:23;;;;;;;10.27;2.25;;;8.70;99.90;;;;;;5061057;28;20036;-49
2023/12/30 12:25:49;;;;;;;14.32;2.50;;;8.70;99.90;;;;;;5058881;28;20564;-51
2023/12/30 12:28:16;;;;;;;11.25;2.22;;;8.60;99.90;;;;;;5062923;28;20044;-49
2023/12/30 12:30:42;;;;;;;15.98;2.83;;;8.70;99.90;;;;;;5060731;28;20036;-48
2023/12/30 12:33:08;;;;;;;10.77;1.83;;;8.60;99.90;;;;;;5063516;28;20455;-48
2023/12/30 12:35:35;;;;;;;9.52;2.35;;;8.60;99.90;;;;;;5064716;28;20503;-48
2023/12/30 12:38:00;;;;;;;14.13;2.70;;;8.60;99.90;;;;;;5058240;28;20032;-51
2023/12/30 12:40:26;;;;;;;8.13;2.75;;;8.70;99.90;;;;;;5061769;28;20109;-50
2023/12/30 12:42:52;;;;;;;12.35;2.65;;;8.70;99.90;;;;;;5060319;28;20033;-52
2023/12/30 12:45:19;;;;;;;6.82;1.98;;;8.60;99.90;;;;;;5054760;28;20036;-50
2023/12/30 12:47:45;;;;;;;13.57;3.13;;;8.70;99.90;;;;;;5060109;28;20441;-52